createdAt,value
2022-11-20T00:00:33.429Z,3.80
2022-11-20T00:01:34.423Z,3.70
2022-11-20T00:02:34.820Z,2.80
2022-11-20T00:03:35.681Z,5.70
2022-11-20T00:04:36.556Z,2.60
2022-11-20T00:05:37.448Z,3.40
2022-11-20T00:06:38.323Z,4.60
2022-11-20T00:07:39.277Z,4.00
2022-11-20T00:08:40.109Z,3.10
2022-11-20T00:09:40.992Z,3.70
2022-11-20T00:10:41.884Z,5.30
2022-11-20T00:11:42.764Z,3.50
2022-11-20T00:12:43.639Z,3.40
2022-11-20T00:13:44.518Z,3.20
2022-11-20T00:14:45.393Z,3.60
2022-11-20T00:15:46.284Z,2.70
2022-11-20T00:16:47.157Z,3.80
2022-11-20T00:17:48.061Z,2.60
2022-11-20T00:18:48.924Z,3.80
2022-11-20T00:19:49.803Z,2.10
2022-11-20T00:20:50.698Z,3.30
2022-11-20T00:21:51.580Z,2.30
2022-11-20T00:22:52.453Z,1.80
2022-11-20T00:23:55.147Z,2.50
2022-11-20T00:24:54.218Z,1.50
2022-11-20T00:25:55.120Z,2.00
2022-11-20T00:26:55.995Z,1.40
2022-11-20T00:27:56.892Z,1.80
2022-11-20T00:28:57.775Z,1.80
2022-11-20T00:29:58.654Z,1.80
2022-11-20T00:30:59.595Z,1.10
2022-11-20T00:32:00.454Z,1.90
2022-11-20T00:33:01.357Z,1.80
2022-11-20T00:34:02.211Z,1.10
2022-11-20T00:35:03.084Z,1.50
2022-11-20T00:36:03.990Z,1.00
2022-11-20T00:37:04.876Z,1.90
2022-11-20T00:38:05.757Z,1.30
2022-11-20T00:39:06.631Z,1.20
2022-11-20T00:40:07.515Z,1.30
2022-11-20T00:41:08.396Z,1.40
2022-11-20T00:42:09.277Z,0.80
2022-11-20T00:43:09.789Z,1.90
2022-11-20T00:44:10.672Z,1.40
2022-11-20T00:45:11.547Z,1.60
2022-11-20T00:46:12.455Z,1.80
2022-11-20T00:47:13.368Z,5.40
2022-11-20T00:48:14.270Z,4.30
2022-11-20T00:49:15.146Z,5.30
2022-11-20T00:50:16.007Z,2.60
2022-11-20T00:51:16.904Z,3.40
2022-11-20T00:52:17.781Z,3.50
2022-11-20T00:53:18.656Z,2.60
2022-11-20T00:54:19.535Z,2.80
2022-11-20T00:55:20.418Z,2.50
2022-11-20T00:56:21.303Z,4.40
2022-11-20T00:57:22.184Z,5.80
2022-11-20T00:58:23.059Z,9.30
2022-11-20T00:59:24.088Z,7.90
2022-11-20T01:00:24.486Z,8.40
2022-11-20T01:01:25.671Z,4.50
2022-11-20T01:02:26.101Z,3.20
2022-11-20T01:03:27.376Z,4.30
2022-11-20T01:04:27.700Z,2.30
2022-11-20T01:05:28.579Z,2.50
2022-11-20T01:06:29.463Z,4.90
2022-11-20T01:07:30.378Z,2.50
2022-11-20T01:08:31.225Z,4.20
2022-11-20T01:09:32.106Z,4.50
2022-11-20T01:10:32.980Z,2.60
2022-11-20T01:11:33.872Z,3.70
2022-11-20T01:12:34.757Z,3.70
2022-11-20T01:13:35.638Z,2.70
2022-11-20T01:14:36.513Z,2.80
2022-11-20T01:15:37.395Z,2.20
2022-11-20T01:16:38.288Z,8.00
2022-11-20T01:17:39.172Z,5.20
2022-11-20T01:18:40.057Z,4.40
2022-11-20T01:19:40.939Z,2.30
2022-11-20T01:20:41.823Z,3.00
2022-11-20T01:21:42.717Z,3.00
2022-11-20T01:22:43.600Z,2.80
2022-11-20T01:23:44.484Z,2.50
2022-11-20T01:24:45.373Z,2.90
2022-11-20T01:25:46.278Z,3.30
2022-11-20T01:26:47.194Z,3.10
2022-11-20T01:27:48.081Z,2.20
2022-11-20T01:28:48.986Z,3.30
2022-11-20T01:29:49.888Z,3.20
2022-11-20T01:30:50.790Z,3.50
2022-11-20T01:31:51.704Z,4.00
2022-11-20T01:32:52.596Z,2.60
2022-11-20T01:33:53.497Z,2.70
2022-11-20T01:34:54.373Z,2.60
2022-11-20T01:35:55.271Z,3.70
2022-11-20T01:36:56.179Z,3.90
2022-11-20T01:37:57.084Z,3.50
2022-11-20T01:38:57.955Z,5.50
2022-11-20T01:39:58.839Z,3.90
2022-11-20T01:40:59.742Z,4.10
2022-11-20T01:42:02.612Z,3.60
2022-11-20T01:43:01.381Z,3.80
2022-11-20T01:44:02.265Z,3.10
2022-11-20T01:45:03.169Z,2.90
2022-11-20T01:46:04.023Z,2.60
2022-11-20T01:47:04.915Z,2.70
2022-11-20T01:48:05.798Z,2.60
2022-11-20T01:49:06.683Z,3.00
2022-11-20T01:50:07.565Z,5.00
2022-11-20T01:51:08.448Z,3.10
2022-11-20T01:52:09.342Z,2.80
2022-11-20T01:53:10.227Z,3.30
2022-11-20T01:54:11.110Z,3.30
2022-11-20T01:55:11.992Z,4.10
2022-11-20T01:56:12.874Z,3.50
2022-11-20T01:57:13.766Z,3.80
2022-11-20T01:58:14.653Z,3.80
2022-11-20T01:59:15.534Z,4.30
2022-11-20T02:00:16.445Z,4.80
2022-11-20T02:01:17.312Z,4.70
2022-11-20T02:02:18.182Z,5.40
2022-11-20T02:03:19.057Z,4.80
2022-11-20T02:04:19.940Z,3.60
2022-11-20T02:05:20.823Z,5.90
2022-11-20T02:06:21.710Z,4.40
2022-11-20T02:07:22.639Z,3.60
2022-11-20T02:08:23.514Z,3.60
2022-11-20T02:09:24.397Z,3.90
2022-11-20T02:10:25.296Z,3.00
2022-11-20T02:11:26.171Z,5.10
2022-11-20T02:12:27.103Z,3.00
2022-11-20T02:13:28.006Z,3.50
2022-11-20T02:14:28.914Z,3.70
2022-11-20T02:15:30.560Z,3.90
2022-11-20T02:16:30.486Z,2.80
2022-11-20T02:17:31.382Z,2.70
2022-11-20T02:18:32.262Z,2.40
2022-11-20T02:19:33.148Z,3.40
2022-11-20T02:20:34.031Z,3.10
2022-11-20T02:21:34.915Z,2.50
2022-11-20T02:22:35.823Z,2.80
2022-11-20T02:23:36.697Z,3.10
2022-11-20T02:24:37.579Z,2.40
2022-11-20T02:25:38.463Z,1.90
2022-11-20T02:26:39.345Z,1.70
2022-11-20T02:27:40.230Z,2.60
2022-11-20T02:28:41.115Z,2.30
2022-11-20T02:29:41.986Z,1.80
2022-11-20T02:30:42.868Z,1.90
2022-11-20T02:31:43.752Z,1.50
2022-11-20T02:32:44.660Z,2.00
2022-11-20T02:33:45.547Z,2.40
2022-11-20T02:34:46.447Z,2.70
2022-11-20T02:35:47.301Z,2.40
2022-11-20T02:36:48.185Z,2.00
2022-11-20T02:37:49.077Z,2.10
2022-11-20T02:38:49.961Z,2.70
2022-11-20T02:39:50.835Z,1.90
2022-11-20T02:40:55.480Z,2.30
2022-11-20T02:41:52.422Z,2.50
2022-11-20T02:42:53.328Z,3.00
2022-11-20T02:43:54.203Z,3.50
2022-11-20T02:44:55.087Z,3.20
2022-11-20T02:45:55.973Z,4.70
2022-11-20T02:46:56.857Z,4.20
2022-11-20T02:47:57.738Z,2.10
2022-11-20T02:48:58.622Z,4.40
2022-11-20T02:49:59.507Z,2.10
2022-11-20T02:51:00.390Z,2.00
2022-11-20T02:52:01.275Z,1.60
2022-11-20T02:53:02.168Z,2.10
2022-11-20T02:54:03.053Z,3.30
2022-11-20T02:55:03.933Z,1.80
2022-11-20T02:56:04.816Z,1.80
2022-11-20T02:57:05.700Z,1.80
2022-11-20T02:58:06.582Z,2.10
2022-11-20T02:59:07.463Z,2.10
2022-11-20T03:00:08.348Z,1.90
2022-11-20T03:01:09.230Z,2.30
2022-11-20T03:02:10.114Z,1.70
2022-11-20T03:03:11.007Z,1.90
2022-11-20T03:04:11.882Z,2.20
2022-11-20T03:05:12.776Z,1.60
2022-11-20T03:06:13.639Z,1.70
2022-11-20T03:07:14.574Z,2.10
2022-11-20T03:08:15.424Z,2.40
2022-11-20T03:09:16.310Z,1.70
2022-11-20T03:10:17.183Z,3.30
2022-11-20T03:11:18.063Z,2.30
2022-11-20T03:12:18.950Z,2.70
2022-11-20T03:13:19.853Z,2.60
2022-11-20T03:14:20.727Z,2.50
2022-11-20T03:15:21.611Z,1.60
2022-11-20T03:16:22.497Z,1.80
2022-11-20T03:17:23.377Z,2.20
2022-11-20T03:18:24.285Z,2.40
2022-11-20T03:19:25.165Z,2.20
2022-11-20T03:20:26.041Z,1.90
2022-11-20T03:21:26.922Z,1.80
2022-11-20T03:22:27.797Z,2.90
2022-11-20T03:23:28.702Z,3.20
2022-11-20T03:24:29.576Z,3.60
2022-11-20T03:25:30.457Z,2.50
2022-11-20T03:26:31.343Z,2.60
2022-11-20T03:27:32.227Z,2.00
2022-11-20T03:28:33.110Z,3.50
2022-11-20T03:29:33.993Z,2.60
2022-11-20T03:30:34.879Z,1.60
2022-11-20T03:31:35.761Z,3.70
2022-11-20T03:32:36.643Z,3.40
2022-11-20T03:33:37.536Z,2.80
2022-11-20T03:34:38.423Z,1.90
2022-11-20T03:35:39.292Z,2.10
2022-11-20T03:36:40.175Z,2.80
2022-11-20T03:37:41.053Z,2.70
2022-11-20T03:38:41.941Z,2.60
2022-11-20T03:39:42.817Z,1.90
2022-11-20T03:40:43.699Z,2.90
2022-11-20T03:41:44.585Z,2.30
2022-11-20T03:42:45.467Z,1.40
2022-11-20T03:43:46.351Z,2.50
2022-11-20T03:44:47.243Z,2.70
2022-11-20T03:45:48.117Z,2.70
2022-11-20T03:46:48.997Z,2.40
2022-11-20T03:47:49.870Z,1.90
2022-11-20T03:48:52.127Z,2.10
2022-11-20T03:49:51.658Z,2.00
2022-11-20T03:50:52.540Z,1.50
2022-11-20T03:51:53.426Z,1.60
2022-11-20T03:52:54.307Z,3.30
2022-11-20T03:53:55.190Z,1.70
2022-11-20T03:54:56.072Z,4.10
2022-11-20T03:55:56.946Z,1.90
2022-11-20T03:56:57.829Z,2.20
2022-11-20T03:57:58.712Z,1.80
2022-11-20T03:58:59.605Z,2.30
2022-11-20T04:00:00.479Z,1.70
2022-11-20T04:01:01.362Z,1.90
2022-11-20T04:02:02.310Z,1.80
2022-11-20T04:03:03.156Z,2.00
2022-11-20T04:04:04.043Z,1.90
2022-11-20T04:05:04.922Z,3.70
2022-11-20T04:06:05.805Z,1.70
2022-11-20T04:07:06.734Z,1.60
2022-11-20T04:08:07.574Z,1.50
2022-11-20T04:09:08.468Z,1.90
2022-11-20T04:10:09.350Z,1.40
2022-11-20T04:11:10.232Z,1.80
2022-11-20T04:12:11.117Z,2.10
2022-11-20T04:13:12.006Z,1.20
2022-11-20T04:14:12.897Z,1.30
2022-11-20T04:15:13.777Z,1.30
2022-11-20T04:16:14.663Z,1.30
2022-11-20T04:17:15.542Z,2.00
2022-11-20T04:18:16.426Z,1.70
2022-11-20T04:19:17.323Z,2.20
2022-11-20T04:20:18.191Z,3.10
2022-11-20T04:21:19.074Z,3.50
2022-11-20T04:22:19.962Z,3.00
2022-11-20T04:23:25.831Z,3.90
2022-11-20T04:24:22.623Z,3.40
2022-11-20T04:25:22.512Z,3.40
2022-11-20T04:26:23.390Z,3.40
2022-11-20T04:27:24.271Z,4.60
2022-11-20T04:28:25.155Z,4.20
2022-11-20T04:29:26.051Z,5.90
2022-11-20T04:30:26.933Z,5.20
2022-11-20T04:31:27.816Z,8.60
2022-11-20T04:32:28.691Z,5.90
2022-11-20T04:33:33.852Z,6.70
2022-11-20T04:34:30.114Z,8.30
2022-11-20T04:35:31.004Z,6.40
2022-11-20T04:36:31.883Z,5.90
2022-11-20T04:37:32.766Z,6.40
2022-11-20T04:38:33.646Z,6.40
2022-11-20T04:39:34.535Z,5.60
2022-11-20T04:40:35.406Z,5.30
2022-11-20T04:41:36.289Z,6.70
2022-11-20T04:42:37.176Z,5.60
2022-11-20T04:43:38.058Z,6.40
2022-11-20T04:44:38.954Z,5.30
2022-11-20T04:45:39.835Z,4.70
2022-11-20T04:46:40.726Z,5.20
2022-11-20T04:47:41.602Z,5.70
2022-11-20T04:48:42.488Z,4.60
2022-11-20T04:49:43.418Z,4.40
2022-11-20T04:50:44.265Z,4.00
2022-11-20T04:51:45.148Z,5.50
2022-11-20T04:52:46.036Z,6.70
2022-11-20T04:53:46.917Z,3.90
2022-11-20T04:54:47.800Z,5.70
2022-11-20T04:55:48.683Z,3.10
2022-11-20T04:56:50.739Z,3.30
2022-11-20T04:57:50.129Z,4.50
2022-11-20T04:58:51.016Z,4.20
2022-11-20T04:59:51.904Z,4.50
2022-11-20T05:00:52.809Z,3.80
2022-11-20T05:01:53.707Z,4.60
2022-11-20T05:02:54.578Z,3.30
2022-11-20T05:03:55.459Z,4.60
2022-11-20T05:04:56.342Z,2.70
2022-11-20T05:05:57.226Z,2.20
2022-11-20T05:06:58.189Z,2.40
2022-11-20T05:07:59.033Z,4.90
2022-11-20T05:08:59.916Z,2.70
2022-11-20T05:10:00.809Z,2.20
2022-11-20T05:11:01.695Z,2.40
2022-11-20T05:12:02.579Z,4.70
2022-11-20T05:13:03.465Z,5.20
2022-11-20T05:14:04.204Z,6.30
2022-11-20T05:15:05.088Z,6.10
2022-11-20T05:16:06.021Z,3.60
2022-11-20T05:17:06.893Z,2.50
2022-11-20T05:18:07.776Z,3.40
2022-11-20T05:19:08.661Z,2.80
2022-11-20T05:20:09.553Z,3.10
2022-11-20T05:21:10.427Z,2.40
2022-11-20T05:22:11.308Z,2.70
2022-11-20T05:23:12.182Z,2.70
2022-11-20T05:24:13.064Z,1.50
2022-11-20T05:25:13.960Z,2.20
2022-11-20T05:26:14.839Z,4.70
2022-11-20T05:27:15.713Z,2.60
2022-11-20T05:28:16.595Z,3.30
2022-11-20T05:29:17.489Z,4.30
2022-11-20T05:30:18.388Z,3.20
2022-11-20T05:31:24.938Z,4.30
2022-11-20T05:32:21.012Z,2.80
2022-11-20T05:33:20.899Z,4.10
2022-11-20T05:34:21.779Z,2.00
2022-11-20T05:35:22.663Z,3.30
2022-11-20T05:36:23.544Z,3.90
2022-11-20T05:37:24.428Z,3.90
2022-11-20T05:38:25.312Z,3.50
2022-11-20T05:39:26.185Z,3.80
2022-11-20T05:40:27.082Z,3.60
2022-11-20T05:41:27.962Z,2.80
2022-11-20T05:42:28.844Z,5.80
2022-11-20T05:43:29.728Z,4.50
2022-11-20T05:44:30.612Z,3.70
2022-11-20T05:45:31.494Z,3.90
2022-11-20T05:46:32.376Z,3.90
2022-11-20T05:47:33.259Z,4.10
2022-11-20T05:48:34.143Z,4.00
2022-11-20T05:49:35.016Z,5.90
2022-11-20T05:50:35.912Z,5.70
2022-11-20T05:51:36.783Z,5.70
2022-11-20T05:52:37.670Z,6.20
2022-11-20T05:53:41.311Z,5.30
2022-11-20T05:54:40.325Z,4.30
2022-11-20T05:55:40.218Z,3.90
2022-11-20T05:56:41.101Z,4.00
2022-11-20T05:57:41.986Z,3.70
2022-11-20T05:58:42.868Z,4.60
2022-11-20T05:59:43.740Z,4.00
2022-11-20T06:00:44.633Z,5.20
2022-11-20T06:01:45.518Z,5.30
2022-11-20T06:02:46.489Z,4.80
2022-11-20T06:03:47.062Z,4.10
2022-11-20T06:04:47.906Z,4.80
2022-11-20T06:05:48.800Z,6.00
2022-11-20T06:06:49.323Z,4.80
2022-11-20T06:07:50.196Z,5.10
2022-11-20T06:08:51.029Z,4.70
2022-11-20T06:09:51.910Z,4.30
2022-11-20T06:10:52.802Z,5.00
2022-11-20T06:11:53.678Z,5.60
2022-11-20T06:12:54.566Z,4.50
2022-11-20T06:13:55.388Z,5.40
2022-11-20T06:14:56.219Z,7.40
2022-11-20T06:15:57.049Z,10.60
2022-11-20T06:16:57.932Z,11.20
2022-11-20T06:17:58.806Z,9.60
2022-11-20T06:18:59.690Z,9.90
2022-11-20T06:20:00.519Z,7.50
2022-11-20T06:21:01.360Z,6.10
2022-11-20T06:22:02.179Z,5.30
2022-11-20T06:23:03.007Z,5.90
2022-11-20T06:24:03.838Z,3.90
2022-11-20T06:25:04.675Z,4.10
2022-11-20T06:26:05.528Z,3.70
2022-11-20T06:27:06.362Z,5.00
2022-11-20T06:28:07.193Z,4.10
2022-11-20T06:29:08.021Z,4.30
2022-11-20T06:30:08.840Z,5.00
2022-11-20T06:31:09.677Z,3.50
2022-11-20T06:32:10.507Z,3.70
2022-11-20T06:33:11.336Z,4.80
2022-11-20T06:34:12.158Z,3.10
2022-11-20T06:35:12.986Z,3.60
2022-11-20T06:36:13.813Z,4.10
2022-11-20T06:37:14.642Z,4.30
2022-11-20T06:38:15.464Z,4.30
2022-11-20T06:39:16.290Z,5.00
2022-11-20T06:40:17.112Z,10.20
2022-11-20T06:41:17.947Z,6.70
2022-11-20T06:42:18.774Z,8.90
2022-11-20T06:43:19.596Z,4.80
2022-11-20T06:44:20.418Z,4.80
2022-11-20T06:45:21.249Z,3.80
2022-11-20T06:46:22.086Z,4.60
2022-11-20T06:47:22.915Z,3.40
2022-11-20T06:48:23.736Z,4.30
2022-11-20T06:49:24.959Z,4.30
2022-11-20T06:50:25.325Z,4.50
2022-11-20T06:51:26.161Z,3.90
2022-11-20T06:52:26.991Z,3.50
2022-11-20T06:53:27.820Z,3.20
2022-11-20T06:54:28.649Z,4.30
2022-11-20T06:55:29.480Z,10.90
2022-11-20T06:56:30.308Z,6.70
2022-11-20T06:57:31.143Z,7.10
2022-11-20T06:58:32.025Z,35.80
2022-11-20T06:59:32.801Z,16.20
2022-11-20T07:00:33.682Z,10.00
2022-11-20T07:01:34.461Z,10.60
2022-11-20T07:02:35.292Z,15.80
2022-11-20T07:03:36.123Z,14.50
2022-11-20T07:04:36.944Z,13.40
2022-11-20T07:05:37.772Z,10.30
2022-11-20T07:06:38.608Z,10.30
2022-11-20T07:07:39.497Z,8.30
2022-11-20T07:08:40.285Z,8.10
2022-11-20T07:09:41.116Z,5.40
2022-11-20T07:10:41.936Z,6.50
2022-11-20T07:11:42.773Z,5.70
2022-11-20T07:12:43.596Z,3.30
2022-11-20T07:13:44.422Z,3.70
2022-11-20T07:14:45.243Z,4.00
2022-11-20T07:15:46.072Z,6.50
2022-11-20T07:16:46.900Z,3.40
2022-11-20T07:17:47.729Z,3.60
2022-11-20T07:18:50.771Z,4.00
2022-11-20T07:19:49.462Z,4.60
2022-11-20T07:20:50.281Z,5.30
2022-11-20T07:21:51.119Z,5.80
2022-11-20T07:22:51.951Z,9.60
2022-11-20T07:23:52.778Z,9.30
2022-11-20T07:24:53.599Z,10.60
2022-11-20T07:25:54.431Z,9.70
2022-11-20T07:26:55.269Z,8.50
2022-11-20T07:27:56.098Z,8.80
2022-11-20T07:28:56.917Z,6.30
2022-11-20T07:29:57.746Z,5.30
2022-11-20T07:30:58.569Z,4.40
2022-11-20T07:31:59.406Z,3.90
2022-11-20T07:33:00.227Z,2.60
2022-11-20T07:34:01.058Z,2.70
2022-11-20T07:35:01.878Z,2.90
2022-11-20T07:36:02.716Z,5.50
2022-11-20T07:37:09.013Z,4.70
2022-11-20T07:38:05.257Z,5.40
2022-11-20T07:39:05.074Z,6.10
2022-11-20T07:40:05.903Z,6.90
2022-11-20T07:41:06.740Z,8.80
2022-11-20T07:42:07.587Z,10.20
2022-11-20T07:43:08.406Z,9.60
2022-11-20T07:44:09.236Z,9.40
2022-11-20T07:45:10.056Z,9.20
2022-11-20T07:46:10.889Z,8.40
2022-11-20T07:47:11.719Z,11.40
2022-11-20T07:48:12.548Z,8.80
2022-11-20T07:49:13.367Z,8.90
2022-11-20T07:50:14.192Z,7.10
2022-11-20T07:51:15.024Z,6.30
2022-11-20T07:52:15.859Z,5.80
2022-11-20T07:53:16.689Z,8.40
2022-11-20T07:54:17.579Z,5.80
2022-11-20T07:55:18.371Z,5.00
2022-11-20T07:56:19.188Z,13.60
2022-11-20T07:57:24.275Z,12.40
2022-11-20T07:58:21.746Z,16.20
2022-11-20T07:59:21.921Z,22.20
2022-11-20T08:00:22.359Z,32.60
2022-11-20T08:01:23.291Z,18.10
2022-11-20T08:02:24.086Z,13.00
2022-11-20T08:03:25.891Z,12.70
2022-11-20T08:04:25.725Z,15.50
2022-11-20T08:05:26.556Z,13.60
2022-11-20T08:06:27.388Z,13.30
2022-11-20T08:07:28.273Z,14.00
2022-11-20T08:08:31.311Z,14.00
2022-11-20T08:09:29.847Z,13.60
2022-11-20T08:10:30.669Z,13.30
2022-11-20T08:11:31.496Z,15.90
2022-11-20T08:12:32.341Z,22.30
2022-11-20T08:13:33.176Z,14.20
2022-11-20T08:14:34.038Z,16.70
2022-11-20T08:15:34.865Z,16.00
2022-11-20T08:16:35.685Z,10.60
2022-11-20T08:17:36.525Z,9.20
2022-11-20T08:18:37.345Z,8.40
2022-11-20T08:19:38.178Z,10.10
2022-11-20T08:20:39.000Z,8.60
2022-11-20T08:21:39.829Z,8.10
2022-11-20T08:22:40.659Z,9.50
2022-11-20T08:23:41.486Z,6.90
2022-11-20T08:24:42.460Z,5.70
2022-11-20T08:25:43.224Z,6.80
2022-11-20T08:26:44.047Z,5.70
2022-11-20T08:27:44.888Z,7.80
2022-11-20T08:28:45.775Z,8.00
2022-11-20T08:29:46.603Z,5.80
2022-11-20T08:30:47.433Z,7.90
2022-11-20T08:31:48.262Z,9.40
2022-11-20T08:32:49.097Z,6.10
2022-11-20T08:33:49.928Z,4.80
2022-11-20T08:34:50.747Z,3.90
2022-11-20T08:35:51.577Z,5.40
2022-11-20T08:36:52.421Z,5.30
2022-11-20T08:37:53.246Z,5.40
2022-11-20T08:38:54.067Z,5.10
2022-11-20T08:39:54.896Z,4.80
2022-11-20T08:40:55.715Z,3.40
2022-11-20T08:41:56.545Z,3.00
2022-11-20T08:42:57.452Z,2.50
2022-11-20T08:43:58.291Z,2.70
2022-11-20T08:44:59.123Z,3.80
2022-11-20T08:45:59.950Z,3.80
2022-11-20T08:47:00.772Z,5.60
2022-11-20T08:48:01.627Z,6.80
2022-11-20T08:49:02.457Z,6.70
2022-11-20T08:50:03.285Z,5.50
2022-11-20T08:51:04.112Z,4.80
2022-11-20T08:52:04.937Z,2.90
2022-11-20T08:53:05.887Z,4.60
2022-11-20T08:54:06.735Z,5.10
2022-11-20T08:55:07.557Z,3.30
2022-11-20T08:56:08.404Z,5.20
2022-11-20T08:57:09.206Z,3.30
2022-11-20T08:58:10.045Z,3.30
2022-11-20T08:59:26.921Z,4.00
2022-11-20T09:00:13.157Z,4.70
2022-11-20T09:01:12.266Z,4.90
2022-11-20T09:02:13.059Z,3.80
2022-11-20T09:03:13.901Z,3.70
2022-11-20T09:04:14.780Z,3.70
2022-11-20T09:05:15.589Z,4.50
2022-11-20T09:06:16.421Z,5.10
2022-11-20T09:07:17.296Z,4.70
2022-11-20T09:08:18.130Z,5.00
2022-11-20T09:09:19.130Z,4.30
2022-11-20T09:10:24.372Z,4.50
2022-11-20T09:11:21.325Z,5.20
2022-11-20T09:12:21.154Z,4.70
2022-11-20T09:13:21.984Z,4.80
2022-11-20T09:14:22.812Z,3.80
2022-11-20T09:15:23.633Z,3.10
2022-11-20T09:16:24.462Z,6.40
2022-11-20T09:17:25.282Z,3.60
2022-11-20T09:18:26.122Z,2.50
2022-11-20T09:19:35.789Z,2.30
2022-11-20T09:20:28.666Z,1.80
2022-11-20T09:21:28.571Z,2.60
2022-11-20T09:22:29.336Z,2.60
2022-11-20T09:23:30.181Z,4.00
2022-11-20T09:24:31.009Z,2.50
2022-11-20T09:25:31.830Z,1.50
2022-11-20T09:26:32.817Z,2.00
2022-11-20T09:27:33.575Z,2.20
2022-11-20T09:28:34.416Z,2.60
2022-11-20T09:29:35.252Z,1.60
2022-11-20T09:30:36.081Z,2.80
2022-11-20T09:31:36.969Z,1.40
2022-11-20T09:32:37.727Z,1.70
2022-11-20T09:33:38.570Z,2.60
2022-11-20T09:34:39.404Z,3.90
2022-11-20T09:35:40.218Z,2.40
2022-11-20T09:36:41.048Z,2.40
2022-11-20T09:37:41.878Z,1.80
2022-11-20T09:38:42.823Z,2.20
2022-11-20T09:39:43.635Z,4.30
2022-11-20T09:40:44.470Z,5.20
2022-11-20T09:41:45.295Z,4.70
2022-11-20T09:42:46.128Z,2.70
2022-11-20T09:43:46.965Z,0.70
2022-11-20T09:44:47.793Z,2.30
2022-11-20T09:45:48.624Z,3.40
2022-11-20T09:46:49.452Z,1.40
2022-11-20T09:47:50.283Z,2.40
2022-11-20T09:48:51.121Z,2.30
2022-11-20T09:49:51.941Z,3.20
2022-11-20T09:50:52.769Z,2.20
2022-11-20T09:51:53.607Z,1.70
2022-11-20T09:52:54.432Z,1.70
2022-11-20T09:53:55.263Z,1.80
2022-11-20T09:54:56.103Z,4.40
2022-11-20T09:55:56.923Z,2.00
2022-11-20T09:56:57.755Z,1.20
2022-11-20T09:57:58.571Z,1.10
2022-11-20T09:58:59.410Z,1.70
2022-11-20T10:00:00.234Z,0.90
2022-11-20T10:01:01.078Z,0.50
2022-11-20T10:02:01.882Z,1.40
2022-11-20T10:03:02.711Z,1.30
2022-11-20T10:04:03.551Z,0.60
2022-11-20T10:05:04.380Z,1.30
2022-11-20T10:06:05.199Z,2.60
2022-11-20T10:07:33.426Z,2.80
2022-11-20T10:08:07.761Z,1.30
2022-11-20T10:09:07.582Z,1.00
2022-11-20T10:10:08.404Z,0.80
2022-11-20T10:11:09.233Z,0.80
2022-11-20T10:12:09.865Z,0.90
2022-11-20T10:13:10.703Z,2.40
2022-11-20T10:14:11.523Z,2.60
2022-11-20T10:15:12.355Z,3.10
2022-11-20T10:16:13.172Z,1.80
2022-11-20T10:17:14.003Z,1.50
2022-11-20T10:18:14.822Z,2.80
2022-11-20T10:19:15.674Z,1.80
2022-11-20T10:20:16.519Z,1.80
2022-11-20T10:21:17.334Z,1.30
2022-11-20T10:22:18.155Z,1.70
2022-11-20T10:23:24.294Z,2.90
2022-11-20T10:24:20.712Z,1.10
2022-11-20T10:25:20.341Z,1.60
2022-11-20T10:26:21.167Z,3.20
2022-11-20T10:27:21.996Z,1.10
2022-11-20T10:28:22.822Z,1.40
2022-11-20T10:29:23.976Z,1.40
2022-11-20T10:30:24.356Z,1.80
2022-11-20T10:31:25.183Z,1.10
2022-11-20T10:32:26.004Z,2.60
2022-11-20T10:33:29.060Z,1.60
2022-11-20T10:34:27.488Z,0.90
2022-11-20T10:35:28.315Z,1.00
2022-11-20T10:36:29.145Z,1.10
2022-11-20T10:37:29.975Z,1.40
2022-11-20T10:38:30.798Z,0.80
2022-11-20T10:39:31.633Z,1.50
2022-11-20T10:40:32.462Z,0.80
2022-11-20T10:41:35.918Z,1.70
2022-11-20T10:42:33.901Z,1.20
2022-11-20T10:43:34.732Z,1.10
2022-11-20T10:44:35.573Z,2.80
2022-11-20T10:45:36.401Z,1.20
2022-11-20T10:46:37.222Z,2.10
2022-11-20T10:47:37.863Z,2.00
2022-11-20T10:48:38.690Z,0.90
2022-11-20T10:49:39.544Z,1.00
2022-11-20T10:50:40.363Z,0.70
2022-11-20T10:51:41.192Z,1.60
2022-11-20T10:52:42.024Z,1.00
2022-11-20T10:53:42.852Z,0.60
2022-11-20T10:54:43.683Z,1.30
2022-11-20T10:55:44.509Z,0.90
2022-11-20T10:56:49.677Z,0.60
2022-11-20T10:57:46.020Z,1.00
2022-11-20T10:58:46.844Z,1.20
2022-11-20T10:59:47.678Z,0.70
2022-11-20T11:00:48.586Z,4.00
2022-11-20T11:01:49.388Z,2.70
2022-11-20T11:02:50.208Z,2.50
2022-11-20T11:03:51.068Z,1.00
2022-11-20T11:04:51.904Z,1.00
2022-11-20T11:05:52.733Z,0.80
2022-11-20T11:06:53.552Z,1.00
2022-11-20T11:07:54.380Z,1.10
2022-11-20T11:08:55.202Z,1.00
2022-11-20T11:09:56.039Z,0.90
2022-11-20T11:10:56.872Z,0.70
2022-11-20T11:11:59.116Z,0.90
2022-11-20T11:12:58.519Z,1.80
2022-11-20T11:13:59.347Z,0.90
2022-11-20T11:15:00.180Z,1.30
2022-11-20T11:16:01.004Z,0.50
2022-11-20T11:17:01.824Z,1.40
2022-11-20T11:18:02.655Z,1.20
2022-11-20T11:19:03.475Z,0.90
2022-11-20T11:20:04.312Z,1.30
2022-11-20T11:21:05.136Z,0.60
2022-11-20T11:22:05.961Z,0.50
2022-11-20T11:23:06.781Z,0.40
2022-11-20T11:24:34.638Z,0.80
2022-11-20T11:25:09.350Z,0.90
2022-11-20T11:26:09.175Z,0.80
2022-11-20T11:27:13.720Z,0.70
2022-11-20T11:28:11.721Z,1.90
2022-11-20T11:29:11.540Z,0.80
2022-11-20T11:30:12.380Z,1.40
2022-11-20T11:31:13.200Z,0.80
2022-11-20T11:32:14.027Z,2.60
2022-11-20T11:33:14.847Z,4.80
2022-11-20T11:34:15.677Z,3.60
2022-11-20T11:35:16.533Z,0.70
2022-11-20T11:36:17.362Z,1.10
2022-11-20T11:37:18.193Z,0.50
2022-11-20T11:38:19.020Z,1.10
2022-11-20T11:39:20.229Z,1.60
2022-11-20T11:40:24.634Z,2.30
2022-11-20T11:41:21.083Z,1.50
2022-11-20T11:42:21.916Z,0.90
2022-11-20T11:43:22.755Z,1.00
2022-11-20T11:44:23.589Z,1.60
2022-11-20T11:45:24.419Z,2.90
2022-11-20T11:46:25.247Z,1.30
2022-11-20T11:47:26.070Z,1.40
2022-11-20T11:48:26.897Z,2.20
2022-11-20T11:49:27.717Z,0.80
2022-11-20T11:50:28.557Z,1.00
2022-11-20T11:51:29.375Z,3.80
2022-11-20T11:52:30.207Z,2.50
2022-11-20T11:53:31.034Z,0.60
2022-11-20T11:54:31.865Z,1.00
2022-11-20T11:55:32.696Z,0.50
2022-11-20T11:56:33.521Z,1.00
2022-11-20T11:57:34.342Z,0.50
2022-11-20T11:58:35.169Z,0.70
2022-11-20T11:59:35.991Z,1.50
2022-11-20T12:00:36.827Z,0.70
2022-11-20T12:01:37.657Z,1.10
2022-11-20T12:02:38.582Z,0.80
2022-11-20T12:03:39.365Z,0.60
2022-11-20T12:04:40.195Z,0.50
2022-11-20T12:05:41.034Z,2.90
2022-11-20T12:06:41.862Z,0.70
2022-11-20T12:07:47.375Z,0.80
2022-11-20T12:08:44.396Z,0.90
2022-11-20T12:09:44.225Z,1.30
2022-11-20T12:10:45.064Z,1.70
2022-11-20T12:11:45.893Z,1.20
2022-11-20T12:12:46.725Z,0.40
2022-11-20T12:13:47.586Z,0.60
2022-11-20T12:14:48.386Z,1.00
2022-11-20T12:15:49.222Z,0.40
2022-11-20T12:16:50.051Z,0.80
2022-11-20T12:17:50.880Z,0.80
2022-11-20T12:18:51.700Z,0.60
2022-11-20T12:19:52.528Z,0.50
2022-11-20T12:20:53.356Z,0.70
2022-11-20T12:21:58.463Z,0.40
2022-11-20T12:22:55.899Z,1.40
2022-11-20T12:23:55.728Z,1.30
2022-11-20T12:24:56.557Z,0.40
2022-11-20T12:25:57.400Z,0.50
2022-11-20T12:26:58.223Z,1.20
2022-11-20T12:27:59.049Z,2.40
2022-11-20T12:28:59.877Z,0.70
2022-11-20T12:30:00.709Z,0.40
2022-11-20T12:31:01.539Z,0.40
2022-11-20T12:32:02.367Z,0.50
2022-11-20T12:33:03.201Z,0.40
2022-11-20T12:34:04.026Z,0.40
2022-11-20T12:35:10.054Z,0.80
2022-11-20T12:36:06.577Z,0.40
2022-11-20T12:37:06.389Z,0.60
2022-11-20T12:38:07.215Z,0.50
2022-11-20T12:39:08.035Z,0.40
2022-11-20T12:40:08.982Z,0.60
2022-11-20T12:41:09.772Z,0.90
2022-11-20T12:42:10.601Z,0.80
2022-11-20T12:43:11.422Z,1.10
2022-11-20T12:44:12.252Z,0.40
2022-11-20T12:45:13.079Z,1.00
2022-11-20T12:46:13.908Z,0.40
2022-11-20T12:47:14.727Z,0.40
2022-11-20T12:48:15.555Z,0.40
2022-11-20T12:49:16.374Z,0.40
2022-11-20T12:50:17.203Z,0.40
2022-11-20T12:51:18.042Z,0.80
2022-11-20T12:52:18.875Z,0.50
2022-11-20T12:53:19.690Z,0.50
2022-11-20T12:54:20.517Z,0.70
2022-11-20T12:55:21.338Z,0.90
2022-11-20T12:56:22.184Z,0.90
2022-11-20T12:57:22.995Z,2.50
2022-11-20T12:58:23.824Z,0.50
2022-11-20T12:59:25.250Z,0.40
2022-11-20T13:00:25.261Z,0.50
2022-11-20T13:01:26.077Z,0.40
2022-11-20T13:02:26.683Z,0.50
2022-11-20T13:03:27.515Z,0.40
2022-11-20T13:04:28.343Z,0.30
2022-11-20T13:05:29.165Z,1.40
2022-11-20T13:06:30.004Z,17.20
2022-11-20T13:07:30.880Z,2.70
2022-11-20T13:08:31.664Z,1.30
2022-11-20T13:09:32.482Z,0.40
2022-11-20T13:10:33.319Z,0.60
2022-11-20T13:11:34.142Z,1.90
2022-11-20T13:12:34.969Z,0.50
2022-11-20T13:13:35.802Z,1.10
2022-11-20T13:14:36.628Z,1.70
2022-11-20T13:15:37.447Z,0.40
2022-11-20T13:16:38.284Z,0.60
2022-11-20T13:17:39.108Z,1.00
2022-11-20T13:18:39.938Z,0.40
2022-11-20T13:19:40.755Z,1.50
2022-11-20T13:20:41.584Z,0.80
2022-11-20T13:21:42.415Z,0.60
2022-11-20T13:22:43.241Z,1.10
2022-11-20T13:23:44.071Z,1.50
2022-11-20T13:24:44.901Z,1.80
2022-11-20T13:25:45.719Z,0.90
2022-11-20T13:26:46.562Z,0.90
2022-11-20T13:27:47.380Z,0.70
2022-11-20T13:28:48.206Z,1.00